createdAt,value
2019-02-16T00:00:56.915Z,3.87
2019-02-16T00:06:02.155Z,4.09
2019-02-16T00:11:07.523Z,4.06
2019-02-16T00:16:12.937Z,3.85
2019-02-16T00:21:18.336Z,3.69
2019-02-16T00:26:23.698Z,3.79
2019-02-16T00:31:29.029Z,3.89
2019-02-16T00:36:34.355Z,3.77
2019-02-16T00:41:39.497Z,3.79
2019-02-16T00:46:44.580Z,3.93
2019-02-16T00:51:50.072Z,4.06
2019-02-16T00:56:55.432Z,4.44
2019-02-16T01:02:00.489Z,4.65
2019-02-16T01:07:05.948Z,4.55
2019-02-16T01:12:11.408Z,4.88
2019-02-16T01:17:16.845Z,4.97
2019-02-16T01:22:22.295Z,4.99
2019-02-16T01:27:27.478Z,4.77
2019-02-16T01:32:32.746Z,4.46
2019-02-16T01:37:38.210Z,4.22
2019-02-16T01:42:43.474Z,4.02
2019-02-16T01:47:48.731Z,3.94
2019-02-16T01:52:54.072Z,3.90
2019-02-16T01:57:59.435Z,3.98
2019-02-16T02:03:04.899Z,3.90
2019-02-16T02:08:10.348Z,3.79
2019-02-16T02:13:15.712Z,3.59
2019-02-16T02:18:21.076Z,3.32
2019-02-16T02:23:26.325Z,3.29
2019-02-16T02:28:31.580Z,3.10
2019-02-16T02:33:36.740Z,3.05
2019-02-16T02:38:42.003Z,3.03
2019-02-16T02:43:47.356Z,2.98
2019-02-16T02:48:52.812Z,2.86
2019-02-16T02:53:58.382Z,2.88
2019-02-16T02:59:03.740Z,2.79
2019-02-16T03:04:09.101Z,2.68
2019-02-16T03:09:14.549Z,2.68
2019-02-16T03:14:19.817Z,2.68
2019-02-16T03:19:25.065Z,2.68
2019-02-16T03:24:30.287Z,2.68
2019-02-16T03:29:44.543Z,2.62
2019-02-16T03:35:10.733Z,2.53
2019-02-16T03:40:15.990Z,2.42
2019-02-16T03:45:21.185Z,2.41
2019-02-16T03:50:26.401Z,2.38
2019-02-16T03:55:31.951Z,2.41
2019-02-16T04:00:37.236Z,2.31
2019-02-16T04:05:42.473Z,2.31
2019-02-16T04:10:47.646Z,2.20
2019-02-16T04:15:52.889Z,2.17
2019-02-16T04:20:57.941Z,2.08
2019-02-16T04:26:04.843Z,2.07
2019-02-16T04:31:10.203Z,2.01
2019-02-16T04:36:15.428Z,2.00
2019-02-16T04:41:21.040Z,2.03
2019-02-16T04:46:26.382Z,2.10
2019-02-16T04:51:31.743Z,2.05
2019-02-16T04:56:37.101Z,2.13
2019-02-16T05:01:42.659Z,2.32
2019-02-16T05:06:48.244Z,2.49
2019-02-16T05:11:53.568Z,2.61
2019-02-16T05:16:59.337Z,2.85
2019-02-16T05:22:04.607Z,2.92
2019-02-16T05:27:09.861Z,3.09
2019-02-16T05:32:15.221Z,3.14
2019-02-16T05:37:20.428Z,3.13
2019-02-16T05:42:25.657Z,3.02
2019-02-16T05:47:30.886Z,2.83
2019-02-16T05:52:36.140Z,2.60
2019-02-16T05:57:41.400Z,2.58
2019-02-16T06:02:46.566Z,2.36
2019-02-16T06:07:51.821Z,2.34
2019-02-16T06:12:57.021Z,2.25
2019-02-16T06:18:02.414Z,2.25
2019-02-16T06:23:07.894Z,2.24
2019-02-16T06:28:13.245Z,2.24
2019-02-16T06:33:18.518Z,2.39
2019-02-16T06:38:23.670Z,2.65
2019-02-16T06:43:28.748Z,2.93
2019-02-16T06:48:34.245Z,2.98
2019-02-16T06:53:39.520Z,3.15
2019-02-16T06:58:44.986Z,3.49
2019-02-16T07:03:50.706Z,3.62
2019-02-16T07:08:56.006Z,3.53
2019-02-16T07:14:01.249Z,3.50
2019-02-16T07:19:08.266Z,3.46
2019-02-16T07:24:13.622Z,3.48
2019-02-16T07:29:19.092Z,3.54
2019-02-16T07:34:24.446Z,3.64
2019-02-16T07:39:29.806Z,3.67
2019-02-16T07:44:42.941Z,3.71
2019-02-16T07:50:05.698Z,3.73
2019-02-16T07:55:12.558Z,3.86
2019-02-16T08:00:19.572Z,3.87
2019-02-16T08:05:32.516Z,3.96
2019-02-16T08:10:39.500Z,4.06
2019-02-16T08:15:49.115Z,4.31
2019-02-16T08:20:58.891Z,4.71
2019-02-16T08:26:08.816Z,5.21
2019-02-16T08:31:15.926Z,5.44
2019-02-16T08:36:23.125Z,5.66
2019-02-16T08:41:48.261Z,6.16
2019-02-16T08:47:11.527Z,6.54
2019-02-16T08:52:18.428Z,6.81
2019-02-16T08:57:34.535Z,6.90
2019-02-16T09:02:53.526Z,7.23
2019-02-16T09:08:03.235Z,7.98
2019-02-16T09:13:19.067Z,8.76
2019-02-16T09:18:31.802Z,9.17
2019-02-16T09:23:38.607Z,9.52
2019-02-16T09:28:48.651Z,9.77
2019-02-16T09:34:10.634Z,10.06
2019-02-16T09:39:18.664Z,10.06
2019-02-16T09:44:25.730Z,10.13
2019-02-16T09:49:41.644Z,10.48
2019-02-16T09:55:03.585Z,10.59
2019-02-16T10:00:23.944Z,10.49
2019-02-16T10:05:39.882Z,10.56
2019-02-16T10:10:57.149Z,10.67
2019-02-16T10:16:18.995Z,11.04
2019-02-16T10:21:42.693Z,11.21
2019-02-16T10:26:49.671Z,11.33
2019-02-16T10:31:57.800Z,11.34
2019-02-16T10:37:10.346Z,11.65
2019-02-16T10:42:23.164Z,11.78
2019-02-16T10:47:33.036Z,12.09
2019-02-16T10:52:42.386Z,12.29
2019-02-16T10:57:58.197Z,12.30
2019-02-16T11:03:05.414Z,12.43
2019-02-16T11:08:15.359Z,12.50
2019-02-16T11:13:24.892Z,12.33
2019-02-16T11:18:34.990Z,12.41
2019-02-16T11:23:45.454Z,12.45
2019-02-16T11:28:55.431Z,12.41
2019-02-16T11:34:02.351Z,12.83
2019-02-16T11:39:10.900Z,13.06
2019-02-16T11:44:23.559Z,13.01
2019-02-16T11:49:50.905Z,12.98
2019-02-16T11:55:12.756Z,13.18
2019-02-16T12:00:28.197Z,13.21
2019-02-16T12:05:35.289Z,13.29
2019-02-16T12:10:42.038Z,13.71
2019-02-16T12:15:51.839Z,13.45
2019-02-16T12:21:04.427Z,13.53
2019-02-16T12:26:11.389Z,13.55
2019-02-16T12:31:24.106Z,13.68
2019-02-16T12:36:31.108Z,13.76
2019-02-16T12:41:37.870Z,13.85
2019-02-16T12:46:44.751Z,13.99
2019-02-16T12:51:51.847Z,13.83
2019-02-16T12:57:14.034Z,13.83
2019-02-16T13:02:20.933Z,14.01
2019-02-16T13:07:27.855Z,13.96
2019-02-16T13:12:52.858Z,14.15
2019-02-16T13:18:02.206Z,14.22
2019-02-16T13:23:27.217Z,14.23
2019-02-16T13:28:47.637Z,14.21
2019-02-16T13:33:54.966Z,14.23
2019-02-16T13:39:02.045Z,14.19
2019-02-16T13:44:13.412Z,14.28
2019-02-16T13:49:23.194Z,14.33
2019-02-16T13:54:33.332Z,14.22
2019-02-16T13:59:45.997Z,14.26
2019-02-16T14:05:10.925Z,14.06
2019-02-16T14:10:18.118Z,14.05
2019-02-16T14:15:29.550Z,14.18
2019-02-16T14:20:34.553Z,14.16
2019-02-16T14:25:44.896Z,14.25
2019-02-16T14:30:48.334Z,14.77
2019-02-16T14:35:54.228Z,16.29
2019-02-16T14:40:59.787Z,16.91
2019-02-16T14:46:05.259Z,17.11
2019-02-16T14:51:10.621Z,17.07
2019-02-16T14:56:15.993Z,16.36
2019-02-16T15:01:21.586Z,15.75
2019-02-16T15:06:27.007Z,15.08
2019-02-16T15:11:32.557Z,14.50
2019-02-16T15:16:37.776Z,13.89
2019-02-16T15:21:42.985Z,13.44
2019-02-16T15:26:48.205Z,13.17
2019-02-16T15:31:53.385Z,12.81
2019-02-16T15:36:59.250Z,12.57
2019-02-16T15:42:04.711Z,12.34
2019-02-16T15:47:09.961Z,12.10
2019-02-16T15:52:15.480Z,11.91
2019-02-16T15:57:20.890Z,11.72
2019-02-16T16:02:26.145Z,11.51
2019-02-16T16:07:31.509Z,11.49
2019-02-16T16:12:38.699Z,11.29
2019-02-16T16:17:45.606Z,11.23
2019-02-16T16:22:52.596Z,11.03
2019-02-16T16:28:02.644Z,10.84
2019-02-16T16:33:12.331Z,10.69
2019-02-16T16:38:25.463Z,10.57
2019-02-16T16:43:49.732Z,10.42
2019-02-16T16:48:59.184Z,10.46
2019-02-16T16:54:08.666Z,10.45
2019-02-16T16:59:27.764Z,10.42
2019-02-16T17:04:37.429Z,10.42
2019-02-16T17:09:49.845Z,10.49
2019-02-16T17:14:59.824Z,10.53
2019-02-16T17:20:24.530Z,10.45
2019-02-16T17:25:40.758Z,10.47
2019-02-16T17:30:50.510Z,10.48
2019-02-16T17:36:03.286Z,10.41
2019-02-16T17:41:19.157Z,10.42
2019-02-16T17:46:29.228Z,10.38
2019-02-16T17:51:45.230Z,10.33
2019-02-16T17:57:10.208Z,10.29
2019-02-16T18:02:20.114Z,10.16
2019-02-16T18:07:29.971Z,10.16
2019-02-16T18:12:42.793Z,10.19
2019-02-16T18:18:06.591Z,10.23
2019-02-16T18:23:13.580Z,10.28
2019-02-16T18:28:23.251Z,10.31
2019-02-16T18:33:45.376Z,10.31
2019-02-16T18:39:04.192Z,10.33
2019-02-16T18:44:21.452Z,10.27
2019-02-16T18:49:37.536Z,10.28
2019-02-16T18:54:44.437Z,10.31
2019-02-16T19:00:03.505Z,10.23
2019-02-16T19:05:20.429Z,10.19
2019-02-16T19:10:27.227Z,10.14
2019-02-16T19:15:40.371Z,10.04
2019-02-16T19:20:50.528Z,9.99
2019-02-16T19:26:00.189Z,10.00
2019-02-16T19:31:06.991Z,9.81
2019-02-16T19:36:13.723Z,9.81
2019-02-16T19:41:20.562Z,9.84
2019-02-16T19:46:33.409Z,9.71
2019-02-16T19:51:56.778Z,9.71
2019-02-16T19:57:03.606Z,9.69
2019-02-16T20:02:13.337Z,9.69
2019-02-16T20:07:29.240Z,9.83
2019-02-16T20:12:36.069Z,9.83
2019-02-16T20:17:57.805Z,9.87
2019-02-16T20:23:07.650Z,9.89
2019-02-16T20:28:14.555Z,9.85
2019-02-16T20:33:21.604Z,9.88
2019-02-16T20:38:43.488Z,9.81
2019-02-16T20:44:02.682Z,9.85
2019-02-16T20:49:18.784Z,9.83
2019-02-16T20:54:31.812Z,9.83
2019-02-16T20:59:48.025Z,9.64
2019-02-16T21:05:03.858Z,9.63
2019-02-16T21:10:14.205Z,9.63
2019-02-16T21:15:21.373Z,9.61
2019-02-16T21:20:34.153Z,9.61
2019-02-16T21:25:41.029Z,9.63
2019-02-16T21:30:53.763Z,9.61
2019-02-16T21:36:03.935Z,9.57
2019-02-16T21:41:19.603Z,9.54
2019-02-16T21:46:29.184Z,9.54
2019-02-16T21:51:42.247Z,9.55
2019-02-16T21:56:51.993Z,9.57
2019-02-16T22:02:17.015Z,9.40
2019-02-16T22:07:39.996Z,9.42
2019-02-16T22:12:49.746Z,9.42
2019-02-16T22:17:55.006Z,9.45
2019-02-16T22:23:00.568Z,9.48
2019-02-16T22:28:05.822Z,9.41
2019-02-16T22:33:11.326Z,9.44
2019-02-16T22:38:16.539Z,9.44
2019-02-16T22:43:21.716Z,9.35
2019-02-16T22:48:28.911Z,9.30
2019-02-16T22:53:34.099Z,9.35
2019-02-16T22:58:39.316Z,9.27
2019-02-16T23:03:44.702Z,9.30
2019-02-16T23:08:50.036Z,9.25
2019-02-16T23:13:55.598Z,9.31
2019-02-16T23:19:00.819Z,9.14
2019-02-16T23:24:06.167Z,9.14
2019-02-16T23:29:11.821Z,9.08
2019-02-16T23:34:17.284Z,9.05
2019-02-16T23:39:22.482Z,9.07
2019-02-16T23:44:27.846Z,8.87
2019-02-16T23:49:33.416Z,8.78
2019-02-16T23:54:38.769Z,8.87
2019-02-16T23:59:45.427Z,8.78
